createdAt,value
2019-03-03T00:00:46.375Z,19.84
2019-03-03T00:01:46.328Z,19.83
2019-03-03T00:02:46.283Z,19.81
2019-03-03T00:03:46.233Z,19.81
2019-03-03T00:04:46.185Z,19.81
2019-03-03T00:05:46.137Z,19.81
2019-03-03T00:06:46.092Z,19.84
2019-03-03T00:07:46.044Z,19.86
2019-03-03T00:08:45.998Z,19.83
2019-03-03T00:09:46.049Z,19.86
2019-03-03T00:10:45.902Z,19.81
2019-03-03T00:11:45.855Z,19.81
2019-03-03T00:12:45.808Z,19.84
2019-03-03T00:13:45.759Z,19.83
2019-03-03T00:14:45.711Z,19.80
2019-03-03T00:15:45.665Z,19.80
2019-03-03T00:16:45.616Z,19.81
2019-03-03T00:17:45.569Z,19.87
2019-03-03T00:18:45.533Z,19.83
2019-03-03T00:19:45.476Z,19.86
2019-03-03T00:20:45.427Z,19.87
2019-03-03T00:21:45.381Z,19.83
2019-03-03T00:22:45.335Z,19.86
2019-03-03T00:23:45.608Z,19.83
2019-03-03T00:24:45.239Z,19.78
2019-03-03T00:25:45.192Z,19.84
2019-03-03T00:26:45.145Z,19.84
2019-03-03T00:27:45.098Z,19.84
2019-03-03T00:28:45.049Z,19.84
2019-03-03T00:29:45.002Z,19.86
2019-03-03T00:30:45.055Z,19.83
2019-03-03T00:31:44.908Z,19.86
2019-03-03T00:32:44.861Z,19.88
2019-03-03T00:33:44.813Z,19.84
2019-03-03T00:34:44.766Z,19.83
2019-03-03T00:35:44.725Z,19.81
2019-03-03T00:36:44.670Z,19.81
2019-03-03T00:37:44.624Z,19.84
2019-03-03T00:38:44.575Z,19.84
2019-03-03T00:39:44.529Z,19.83
2019-03-03T00:40:44.480Z,19.83
2019-03-03T00:41:44.436Z,19.84
2019-03-03T00:42:44.387Z,19.84
2019-03-03T00:43:44.340Z,19.83
2019-03-03T00:44:45.969Z,19.78
2019-03-03T00:45:44.246Z,19.81
2019-03-03T00:46:44.198Z,19.80
2019-03-03T00:47:44.151Z,19.81
2019-03-03T00:48:44.103Z,19.83
2019-03-03T00:49:44.055Z,19.87
2019-03-03T00:50:44.008Z,19.86
2019-03-03T00:51:43.961Z,19.81
2019-03-03T00:52:43.922Z,19.80
2019-03-03T00:53:43.868Z,19.80
2019-03-03T00:54:43.820Z,19.84
2019-03-03T00:55:43.772Z,19.80
2019-03-03T00:56:43.723Z,19.83
2019-03-03T00:57:43.677Z,19.83
2019-03-03T00:58:43.630Z,19.83
2019-03-03T00:59:43.582Z,19.88
2019-03-03T01:00:43.535Z,19.86
2019-03-03T01:01:43.487Z,19.81
2019-03-03T01:02:43.443Z,19.84
2019-03-03T01:03:43.393Z,19.83
2019-03-03T01:04:43.345Z,19.83
2019-03-03T01:05:43.298Z,19.80
2019-03-03T01:06:43.251Z,19.87
2019-03-03T01:07:43.204Z,19.80
2019-03-03T01:08:43.157Z,19.88
2019-03-03T01:09:43.115Z,19.84
2019-03-03T01:10:43.062Z,19.81
2019-03-03T01:11:43.015Z,19.83
2019-03-03T01:12:42.969Z,19.81
2019-03-03T01:13:42.920Z,19.87
2019-03-03T01:14:42.873Z,19.86
2019-03-03T01:15:42.825Z,19.87
2019-03-03T01:16:42.777Z,19.84
2019-03-03T01:17:42.732Z,19.81
2019-03-03T01:18:42.683Z,19.83
2019-03-03T01:19:42.637Z,19.83
2019-03-03T01:20:42.590Z,19.87
2019-03-03T01:21:42.545Z,19.81
2019-03-03T01:22:42.494Z,19.91
2019-03-03T01:23:42.452Z,19.86
2019-03-03T01:24:42.402Z,19.86
2019-03-03T01:25:42.352Z,19.83
2019-03-03T01:26:42.305Z,19.86
2019-03-03T01:27:42.258Z,19.83
2019-03-03T01:28:42.209Z,19.80
2019-03-03T01:29:42.164Z,19.83
2019-03-03T01:30:42.115Z,19.83
2019-03-03T01:31:42.068Z,19.86
2019-03-03T01:32:42.021Z,19.84
2019-03-03T01:33:41.974Z,19.84
2019-03-03T01:34:41.934Z,19.98
2019-03-03T01:35:41.929Z,19.86
2019-03-03T01:36:41.830Z,19.86
2019-03-03T01:37:41.784Z,19.86
2019-03-03T01:38:41.737Z,19.81
2019-03-03T01:39:41.689Z,19.87
2019-03-03T01:40:41.642Z,19.83
2019-03-03T01:41:41.595Z,19.80
2019-03-03T01:42:41.548Z,19.81
2019-03-03T01:43:41.501Z,19.81
2019-03-03T01:44:41.452Z,19.81
2019-03-03T01:45:41.723Z,19.84
2019-03-03T01:46:41.359Z,19.83
2019-03-03T01:47:41.311Z,19.86
2019-03-03T01:48:41.263Z,19.78
2019-03-03T01:49:41.216Z,19.87
2019-03-03T01:50:41.169Z,19.81
2019-03-03T01:51:41.122Z,19.81
2019-03-03T01:52:41.175Z,19.81
2019-03-03T01:53:41.031Z,19.83
2019-03-03T01:54:40.980Z,19.81
2019-03-03T01:55:40.932Z,19.92
2019-03-03T01:56:40.885Z,19.94
2019-03-03T01:57:40.840Z,19.84
2019-03-03T01:58:40.791Z,19.84
2019-03-03T01:59:40.745Z,19.84
2019-03-03T02:00:40.696Z,19.83
2019-03-03T02:01:40.649Z,19.81
2019-03-03T02:02:40.603Z,19.83
2019-03-03T02:03:40.555Z,19.80
2019-03-03T02:04:40.507Z,19.83
2019-03-03T02:05:40.460Z,19.84
2019-03-03T02:06:40.412Z,19.84
2019-03-03T02:07:40.365Z,19.86
2019-03-03T02:08:40.316Z,19.84
2019-03-03T02:09:40.270Z,19.83
2019-03-03T02:10:40.223Z,19.86
2019-03-03T02:11:40.177Z,19.81
2019-03-03T02:12:40.130Z,19.83
2019-03-03T02:13:40.081Z,19.87
2019-03-03T02:14:40.034Z,19.87
2019-03-03T02:15:39.989Z,19.84
2019-03-03T02:16:39.938Z,19.83
2019-03-03T02:17:39.994Z,19.88
2019-03-03T02:18:39.847Z,19.84
2019-03-03T02:19:39.796Z,19.86
2019-03-03T02:20:39.749Z,19.81
2019-03-03T02:21:39.702Z,19.84
2019-03-03T02:22:39.655Z,19.87
2019-03-03T02:23:39.608Z,19.83
2019-03-03T02:24:39.560Z,19.84
2019-03-03T02:25:39.513Z,19.83
2019-03-03T02:26:39.466Z,19.84
2019-03-03T02:27:39.419Z,19.81
2019-03-03T02:28:39.371Z,19.81
2019-03-03T02:29:39.323Z,19.83
2019-03-03T02:30:39.281Z,19.91
2019-03-03T02:31:39.231Z,19.80
2019-03-03T02:32:39.181Z,19.83
2019-03-03T02:33:39.137Z,19.80
2019-03-03T02:34:39.086Z,19.87
2019-03-03T02:35:39.041Z,19.80
2019-03-03T02:36:38.993Z,19.84
2019-03-03T02:37:38.949Z,19.84
2019-03-03T02:38:38.898Z,19.86
2019-03-03T02:39:38.852Z,19.84
2019-03-03T02:40:38.803Z,19.91
2019-03-03T02:41:38.757Z,19.88
2019-03-03T02:42:38.722Z,19.83
2019-03-03T02:43:38.665Z,19.91
2019-03-03T02:44:38.614Z,19.83
2019-03-03T02:45:38.567Z,19.95
2019-03-03T02:46:38.523Z,19.84
2019-03-03T02:47:38.473Z,19.84
2019-03-03T02:48:38.424Z,19.84
2019-03-03T02:49:38.377Z,19.86
2019-03-03T02:50:38.330Z,19.81
2019-03-03T02:51:38.283Z,19.84
2019-03-03T02:52:38.235Z,19.81
2019-03-03T02:53:38.188Z,19.81
2019-03-03T02:54:38.141Z,19.86
2019-03-03T02:55:38.094Z,19.80
2019-03-03T02:56:38.046Z,19.83
2019-03-03T02:57:38.049Z,19.83
2019-03-03T02:58:38.002Z,19.84
2019-03-03T02:59:37.906Z,19.84
2019-03-03T03:00:37.864Z,19.84
2019-03-03T03:01:37.810Z,19.86
2019-03-03T03:02:37.764Z,19.84
2019-03-03T03:03:37.718Z,19.86
2019-03-03T03:04:37.667Z,19.81
2019-03-03T03:05:37.622Z,19.83
2019-03-03T03:06:37.573Z,19.86
2019-03-03T03:07:37.528Z,19.84
2019-03-03T03:08:37.478Z,19.94
2019-03-03T03:09:37.431Z,19.98
2019-03-03T03:10:37.401Z,19.83
2019-03-03T03:11:37.339Z,19.86
2019-03-03T03:12:37.292Z,19.95
2019-03-03T03:13:37.247Z,19.86
2019-03-03T03:14:37.197Z,19.87
2019-03-03T03:15:37.153Z,19.86
2019-03-03T03:16:37.099Z,19.84
2019-03-03T03:17:37.053Z,19.87
2019-03-03T03:18:37.006Z,19.84
2019-03-03T03:19:36.961Z,19.86
2019-03-03T03:20:36.911Z,19.88
2019-03-03T03:21:36.869Z,19.86
2019-03-03T03:22:36.819Z,19.81
2019-03-03T03:23:36.770Z,19.91
2019-03-03T03:24:36.722Z,19.87
2019-03-03T03:25:36.678Z,19.87
2019-03-03T03:26:36.629Z,19.86
2019-03-03T03:27:36.581Z,19.95
2019-03-03T03:28:36.531Z,19.84
2019-03-03T03:29:36.486Z,19.86
2019-03-03T03:30:36.438Z,19.92
2019-03-03T03:31:36.391Z,19.86
2019-03-03T03:32:36.349Z,19.83
2019-03-03T03:33:36.296Z,19.92
2019-03-03T03:34:36.249Z,19.84
2019-03-03T03:35:36.202Z,19.83
2019-03-03T03:36:36.976Z,19.83
2019-03-03T03:37:36.106Z,19.88
2019-03-03T03:38:36.065Z,19.86
2019-03-03T03:39:36.013Z,19.83
2019-03-03T03:40:35.964Z,19.81
2019-03-03T03:41:35.917Z,19.83
2019-03-03T03:42:35.869Z,19.84
2019-03-03T03:43:35.823Z,19.84
2019-03-03T03:44:35.775Z,19.86
2019-03-03T03:45:35.727Z,19.81
2019-03-03T03:46:35.689Z,19.81
2019-03-03T03:47:35.635Z,19.86
2019-03-03T03:48:35.586Z,19.81
2019-03-03T03:49:35.540Z,19.83
2019-03-03T03:50:35.491Z,19.83
2019-03-03T03:51:35.444Z,19.95
2019-03-03T03:52:35.397Z,19.84
2019-03-03T03:53:35.352Z,19.87
2019-03-03T03:54:35.303Z,19.88
2019-03-03T03:55:35.255Z,19.84
2019-03-03T03:56:35.206Z,19.80
2019-03-03T03:57:35.164Z,19.84
2019-03-03T03:58:35.113Z,19.87
2019-03-03T03:59:35.066Z,19.95
2019-03-03T04:00:35.017Z,19.83
2019-03-03T04:01:34.971Z,19.83
2019-03-03T04:02:34.933Z,19.87
2019-03-03T04:03:34.876Z,19.86
2019-03-03T04:04:34.827Z,19.92
2019-03-03T04:05:34.781Z,19.83
2019-03-03T04:06:34.734Z,19.86
2019-03-03T04:07:34.687Z,19.81
2019-03-03T04:08:34.639Z,19.87
2019-03-03T04:09:34.591Z,19.92
2019-03-03T04:10:34.550Z,19.81
2019-03-03T04:11:34.511Z,19.95
2019-03-03T04:12:34.451Z,19.92
2019-03-03T04:13:34.402Z,19.86
2019-03-03T04:14:34.356Z,19.86
2019-03-03T04:15:34.313Z,19.81
2019-03-03T04:16:34.260Z,19.84
2019-03-03T04:17:34.213Z,19.83
2019-03-03T04:18:34.167Z,19.83
2019-03-03T04:19:34.118Z,19.78
2019-03-03T04:20:34.079Z,19.96
2019-03-03T04:21:34.027Z,19.84
2019-03-03T04:22:33.977Z,19.91
2019-03-03T04:23:33.930Z,19.83
2019-03-03T04:24:33.885Z,19.86
2019-03-03T04:25:33.833Z,19.84
2019-03-03T04:26:33.787Z,19.87
2019-03-03T04:27:33.740Z,19.83
2019-03-03T04:28:33.692Z,19.83
2019-03-03T04:29:33.645Z,19.83
2019-03-03T04:30:33.598Z,19.81
2019-03-03T04:31:33.601Z,19.84
2019-03-03T04:32:33.502Z,19.83
2019-03-03T04:33:33.455Z,19.84
2019-03-03T04:34:33.407Z,19.83
2019-03-03T04:35:33.361Z,19.80
2019-03-03T04:36:33.313Z,19.78
2019-03-03T04:37:33.266Z,19.88
2019-03-03T04:38:33.219Z,19.83
2019-03-03T04:39:33.175Z,19.87
2019-03-03T04:40:33.124Z,19.84
2019-03-03T04:41:33.076Z,19.87
2019-03-03T04:42:33.030Z,19.81
2019-03-03T04:43:32.983Z,19.84
2019-03-03T04:44:32.986Z,19.83
2019-03-03T04:45:32.888Z,19.84
2019-03-03T04:46:32.840Z,19.84
2019-03-03T04:47:32.793Z,19.81
2019-03-03T04:48:32.745Z,19.83
2019-03-03T04:49:32.698Z,19.84
2019-03-03T04:50:32.651Z,19.83
2019-03-03T04:51:32.605Z,19.81
2019-03-03T04:52:32.555Z,19.83
2019-03-03T04:53:32.508Z,19.86
2019-03-03T04:54:32.467Z,19.86
2019-03-03T04:55:32.415Z,19.84
2019-03-03T04:56:32.369Z,19.83
2019-03-03T04:57:32.319Z,19.95
2019-03-03T04:58:32.272Z,19.95
2019-03-03T04:59:32.224Z,19.83
2019-03-03T05:00:32.176Z,19.86
2019-03-03T05:01:32.129Z,19.88
2019-03-03T05:02:32.082Z,19.86
2019-03-03T05:03:32.035Z,19.83
2019-03-03T05:04:31.987Z,19.83
2019-03-03T05:05:31.990Z,19.96
2019-03-03T05:06:31.893Z,19.96
2019-03-03T05:07:31.845Z,19.91
2019-03-03T05:08:31.798Z,19.91
2019-03-03T05:09:31.752Z,19.92
2019-03-03T05:10:31.704Z,19.88
2019-03-03T05:11:31.657Z,19.91
2019-03-03T05:12:31.607Z,19.95
2019-03-03T05:13:31.567Z,19.96
2019-03-03T05:14:31.515Z,19.86
2019-03-03T05:15:31.471Z,19.86
2019-03-03T05:16:31.420Z,19.83
2019-03-03T05:17:31.415Z,19.96
2019-03-03T05:18:31.325Z,19.92
2019-03-03T05:19:31.277Z,19.94
2019-03-03T05:20:31.232Z,19.96
2019-03-03T05:21:31.183Z,19.96
2019-03-03T05:22:31.134Z,19.94
2019-03-03T05:23:31.091Z,19.92
2019-03-03T05:24:34.275Z,19.91
2019-03-03T05:25:30.993Z,19.91
2019-03-03T05:26:30.997Z,19.92
2019-03-03T05:27:30.899Z,19.86
2019-03-03T05:28:30.851Z,19.99
2019-03-03T05:29:30.804Z,19.92
2019-03-03T05:30:30.757Z,19.92
2019-03-03T05:31:30.710Z,19.92
2019-03-03T05:32:30.662Z,19.95
2019-03-03T05:33:30.615Z,19.87
2019-03-03T05:34:30.567Z,19.86
2019-03-03T05:35:30.520Z,19.92
2019-03-03T05:36:30.473Z,19.92
2019-03-03T05:37:30.425Z,19.96
2019-03-03T05:38:30.378Z,20.01
2019-03-03T05:39:30.331Z,19.87
2019-03-03T05:40:30.290Z,19.95
2019-03-03T05:41:30.236Z,19.88
2019-03-03T05:42:30.190Z,19.95
2019-03-03T05:43:30.142Z,19.92
2019-03-03T05:44:30.095Z,19.92
2019-03-03T05:45:30.048Z,19.91
2019-03-03T05:46:30.000Z,19.91
2019-03-03T05:47:30.053Z,19.91
2019-03-03T05:48:29.904Z,19.91
2019-03-03T05:49:29.857Z,19.91
2019-03-03T05:50:29.810Z,19.99
2019-03-03T05:51:29.763Z,19.92
2019-03-03T05:52:29.715Z,19.86
2019-03-03T05:53:29.668Z,19.88
2019-03-03T05:54:29.624Z,19.91
2019-03-03T05:55:29.574Z,19.92
2019-03-03T05:56:29.526Z,19.87
2019-03-03T05:57:29.478Z,19.95
2019-03-03T05:58:29.432Z,19.92
2019-03-03T05:59:29.389Z,19.94
2019-03-03T06:00:29.336Z,19.95
2019-03-03T06:01:29.390Z,19.92
2019-03-03T06:02:29.250Z,19.96
2019-03-03T06:03:29.195Z,19.92
2019-03-03T06:04:29.147Z,19.92
2019-03-03T06:05:29.100Z,19.92
2019-03-03T06:06:29.052Z,19.88
2019-03-03T06:07:29.056Z,19.96
2019-03-03T06:08:28.958Z,19.87
2019-03-03T06:09:28.911Z,19.87
2019-03-03T06:10:28.862Z,19.91
2019-03-03T06:11:28.820Z,19.96
2019-03-03T06:12:28.774Z,19.88
2019-03-03T06:13:28.721Z,19.87
2019-03-03T06:14:28.676Z,19.95
2019-03-03T06:15:28.627Z,19.88
2019-03-03T06:16:28.579Z,19.99
2019-03-03T06:17:28.532Z,19.91
2019-03-03T06:18:28.483Z,19.95
2019-03-03T06:19:28.440Z,19.94
2019-03-03T06:20:28.391Z,19.99
2019-03-03T06:21:28.342Z,19.95
2019-03-03T06:22:28.294Z,19.96
2019-03-03T06:23:28.248Z,19.91
2019-03-03T06:24:28.203Z,19.91
2019-03-03T06:25:28.154Z,19.92
2019-03-03T06:26:28.106Z,19.92
2019-03-03T06:27:28.060Z,19.94
2019-03-03T06:28:28.010Z,19.91
2019-03-03T06:29:27.963Z,19.99
2019-03-03T06:30:27.920Z,19.94
2019-03-03T06:31:27.869Z,19.94
2019-03-03T06:32:27.821Z,19.98
2019-03-03T06:33:27.774Z,19.96
2019-03-03T06:34:27.726Z,19.94
2019-03-03T06:35:27.680Z,19.92
2019-03-03T06:36:27.632Z,19.96
2019-03-03T06:37:27.587Z,19.94
2019-03-03T06:38:27.538Z,19.78
2019-03-03T06:39:27.491Z,19.96
2019-03-03T06:40:27.443Z,19.94
2019-03-03T06:41:27.396Z,19.94
2019-03-03T06:42:27.349Z,19.96
2019-03-03T06:43:27.301Z,19.96
2019-03-03T06:44:27.311Z,19.99
2019-03-03T06:45:27.206Z,19.95
2019-03-03T06:46:27.159Z,19.98
2019-03-03T06:47:27.112Z,19.99
2019-03-03T06:48:27.065Z,19.94
2019-03-03T06:49:27.017Z,19.99
2019-03-03T06:50:27.021Z,19.96
2019-03-03T06:51:26.923Z,19.98
2019-03-03T06:52:26.875Z,19.98
2019-03-03T06:53:26.828Z,19.99
2019-03-03T06:54:26.782Z,19.95
2019-03-03T06:55:26.734Z,19.96
2019-03-03T06:56:26.687Z,19.99
2019-03-03T06:57:26.638Z,19.99
2019-03-03T06:58:26.593Z,19.99
2019-03-03T06:59:26.544Z,20.01
2019-03-03T07:00:26.496Z,19.92
2019-03-03T07:01:27.317Z,19.98
2019-03-03T07:02:26.402Z,19.94
2019-03-03T07:03:26.356Z,19.99
2019-03-03T07:04:26.306Z,20.01
2019-03-03T07:05:26.260Z,19.98
2019-03-03T07:06:26.213Z,19.88
2019-03-03T07:07:26.172Z,19.92
2019-03-03T07:08:26.119Z,19.99
2019-03-03T07:09:26.070Z,19.98
2019-03-03T07:10:26.025Z,19.86
2019-03-03T07:11:25.977Z,19.96
2019-03-03T07:12:25.978Z,20.03
2019-03-03T07:13:25.881Z,20.05
2019-03-03T07:14:25.834Z,20.03
2019-03-03T07:15:25.787Z,19.86
2019-03-03T07:16:26.474Z,19.96
2019-03-03T07:17:25.692Z,20.01
2019-03-03T07:18:25.645Z,20.03
2019-03-03T07:19:25.599Z,20.05
2019-03-03T07:20:25.549Z,20.03
2019-03-03T07:21:25.506Z,19.98
2019-03-03T07:22:25.456Z,20.03
2019-03-03T07:23:25.408Z,19.95
2019-03-03T07:24:25.360Z,19.98
2019-03-03T07:25:25.313Z,19.99
2019-03-03T07:26:25.265Z,19.96
2019-03-03T07:27:25.219Z,20.05
2019-03-03T07:28:25.171Z,20.03
2019-03-03T07:29:25.124Z,19.98
2019-03-03T07:30:25.083Z,19.99
2019-03-03T07:31:25.029Z,19.99
2019-03-03T07:32:24.981Z,20.02
2019-03-03T07:33:25.057Z,20.10
2019-03-03T07:34:24.888Z,20.10
2019-03-03T07:35:24.842Z,20.06
2019-03-03T07:36:24.793Z,20.11
2019-03-03T07:37:24.745Z,20.08
2019-03-03T07:38:24.698Z,20.16
2019-03-03T07:39:24.701Z,20.10
2019-03-03T07:40:24.603Z,20.06
2019-03-03T07:41:24.556Z,20.10
2019-03-03T07:42:24.509Z,20.10
2019-03-03T07:43:24.462Z,20.11
2019-03-03T07:44:24.414Z,20.14
2019-03-03T07:45:24.367Z,20.14
2019-03-03T07:46:24.320Z,20.18
2019-03-03T07:47:24.273Z,20.16
2019-03-03T07:48:24.226Z,20.21
2019-03-03T07:49:24.178Z,20.18
2019-03-03T07:50:24.133Z,20.26
2019-03-03T07:51:24.088Z,20.18
2019-03-03T07:52:24.036Z,20.18
2019-03-03T07:53:23.998Z,20.18
2019-03-03T07:54:23.992Z,20.16
2019-03-03T07:55:23.895Z,20.14
2019-03-03T07:56:23.851Z,20.14
2019-03-03T07:57:23.800Z,20.14
2019-03-03T07:58:23.753Z,20.13
2019-03-03T07:59:23.707Z,20.14
2019-03-03T08:00:23.658Z,20.17
2019-03-03T08:01:23.610Z,20.17
2019-03-03T08:02:23.563Z,20.18
2019-03-03T08:03:23.517Z,20.17
2019-03-03T08:04:23.470Z,20.21
2019-03-03T08:05:23.422Z,20.18
2019-03-03T08:06:23.375Z,20.16
2019-03-03T08:07:23.327Z,20.17
2019-03-03T08:08:23.279Z,20.17
2019-03-03T08:09:23.233Z,20.20
2019-03-03T08:10:23.185Z,20.21
2019-03-03T08:11:23.140Z,20.18
2019-03-03T08:12:23.091Z,20.32
2019-03-03T08:13:23.044Z,20.23
2019-03-03T08:14:23.047Z,20.24
2019-03-03T08:15:22.951Z,20.28
2019-03-03T08:16:22.902Z,20.23
2019-03-03T08:17:22.854Z,20.21
2019-03-03T08:18:22.808Z,20.24
2019-03-03T08:19:22.761Z,20.33
2019-03-03T08:20:22.713Z,20.26
2019-03-03T08:21:22.667Z,20.29
2019-03-03T08:22:22.619Z,20.31
2019-03-03T08:23:22.572Z,20.29
2019-03-03T08:24:22.524Z,20.29
2019-03-03T08:25:22.477Z,20.29
2019-03-03T08:26:22.432Z,20.29
2019-03-03T08:27:22.383Z,20.26
2019-03-03T08:28:22.336Z,20.29
2019-03-03T08:29:22.288Z,20.28
2019-03-03T08:30:22.241Z,20.29
2019-03-03T08:31:22.195Z,20.26
2019-03-03T08:32:22.150Z,20.29
2019-03-03T08:33:22.100Z,20.35
2019-03-03T08:34:22.052Z,20.36
2019-03-03T08:35:22.006Z,20.39
2019-03-03T08:36:22.008Z,20.35
2019-03-03T08:37:21.961Z,20.39
2019-03-03T08:38:21.865Z,20.42
2019-03-03T08:39:21.816Z,20.48
2019-03-03T08:40:21.769Z,20.43
2019-03-03T08:41:21.722Z,20.39
2019-03-03T08:42:21.674Z,20.38
2019-03-03T08:43:21.628Z,20.39
2019-03-03T08:44:21.580Z,20.35
2019-03-03T08:45:21.534Z,20.41
2019-03-03T08:46:21.486Z,20.32
2019-03-03T08:47:21.439Z,20.36
2019-03-03T08:48:21.392Z,20.35
2019-03-03T08:49:21.345Z,20.32
2019-03-03T08:50:21.298Z,20.35
2019-03-03T08:51:21.252Z,20.33
2019-03-03T08:52:21.303Z,20.31
2019-03-03T08:53:21.156Z,20.38
2019-03-03T08:54:21.109Z,20.36
2019-03-03T08:55:21.062Z,20.38
2019-03-03T08:56:21.014Z,20.39
2019-03-03T08:57:20.967Z,20.36
2019-03-03T08:58:20.920Z,20.36
2019-03-03T08:59:20.874Z,20.38
2019-03-03T09:00:20.825Z,20.35
2019-03-03T09:01:20.781Z,20.47
2019-03-03T09:02:20.731Z,20.43
2019-03-03T09:03:20.685Z,20.39
2019-03-03T09:04:20.637Z,20.43
2019-03-03T09:05:20.590Z,20.42
2019-03-03T09:06:20.544Z,20.43
2019-03-03T09:07:20.496Z,20.43
2019-03-03T09:08:20.448Z,20.41
2019-03-03T09:09:20.401Z,20.48
2019-03-03T09:10:25.385Z,20.43
2019-03-03T09:11:20.307Z,20.36
2019-03-03T09:12:20.261Z,20.41
2019-03-03T09:13:20.212Z,20.43
2019-03-03T09:14:20.169Z,20.43
2019-03-03T09:15:20.120Z,20.39
2019-03-03T09:16:20.072Z,20.47
2019-03-03T09:17:20.024Z,20.41
2019-03-03T09:18:20.177Z,20.41
2019-03-03T09:19:19.931Z,20.43
2019-03-03T09:20:19.882Z,20.48
2019-03-03T09:21:19.835Z,20.42
2019-03-03T09:22:19.838Z,20.48
2019-03-03T09:23:19.742Z,20.41
2019-03-03T09:24:19.693Z,20.47
2019-03-03T09:25:19.647Z,20.39
2019-03-03T09:26:19.599Z,20.43
2019-03-03T09:27:19.557Z,20.43
2019-03-03T09:28:19.505Z,20.33
2019-03-03T09:29:19.463Z,20.38
2019-03-03T09:30:19.411Z,20.42
2019-03-03T09:31:19.366Z,20.33
2019-03-03T09:32:19.316Z,20.39
2019-03-03T09:33:19.273Z,20.38
2019-03-03T09:34:19.223Z,20.38
2019-03-03T09:35:19.177Z,20.41
2019-03-03T09:36:19.128Z,20.51
2019-03-03T09:37:19.130Z,20.48
2019-03-03T09:38:19.034Z,20.33
2019-03-03T09:39:18.987Z,20.51
2019-03-03T09:40:18.989Z,20.41
2019-03-03T09:41:18.893Z,20.41
2019-03-03T09:42:18.845Z,20.36
2019-03-03T09:43:18.798Z,20.41
2019-03-03T09:44:18.752Z,20.43
2019-03-03T09:45:18.707Z,20.43
2019-03-03T09:46:18.657Z,20.39
2019-03-03T09:47:18.610Z,20.47
2019-03-03T09:48:18.563Z,20.47
2019-03-03T09:49:18.516Z,20.47
2019-03-03T09:50:18.468Z,20.50
2019-03-03T09:51:18.424Z,20.52
2019-03-03T09:52:18.416Z,20.47
2019-03-03T09:53:18.327Z,20.54
2019-03-03T09:54:18.281Z,20.54
2019-03-03T09:55:18.236Z,20.55
2019-03-03T09:56:18.184Z,20.55
2019-03-03T09:57:18.142Z,20.51
2019-03-03T09:58:18.091Z,20.50
2019-03-03T09:59:18.044Z,20.55
2019-03-03T10:00:17.997Z,20.51
2019-03-03T10:01:17.950Z,20.54
2019-03-03T10:02:17.905Z,20.58
2019-03-03T10:03:17.856Z,20.51
2019-03-03T10:04:17.809Z,20.47
2019-03-03T10:05:17.761Z,20.52
2019-03-03T10:06:17.714Z,20.48
2019-03-03T10:07:17.667Z,20.48
2019-03-03T10:08:17.619Z,20.43
2019-03-03T10:09:17.572Z,20.47
2019-03-03T10:10:17.525Z,20.47
2019-03-03T10:11:17.479Z,20.48
2019-03-03T10:12:17.433Z,20.54
2019-03-03T10:13:17.384Z,20.55
2019-03-03T10:14:17.337Z,20.50
2019-03-03T10:15:17.293Z,20.47
2019-03-03T10:16:17.242Z,20.48
2019-03-03T10:17:17.196Z,20.54
2019-03-03T10:18:17.149Z,20.54
2019-03-03T10:19:17.103Z,20.58
2019-03-03T10:20:17.054Z,20.48
2019-03-03T10:21:17.007Z,20.50
2019-03-03T10:22:16.960Z,20.57
2019-03-03T10:23:16.914Z,20.55
2019-03-03T10:24:16.871Z,20.59
2019-03-03T10:25:16.820Z,20.48
2019-03-03T10:26:16.772Z,20.52
2019-03-03T10:27:16.728Z,20.58
2019-03-03T10:28:16.679Z,20.57
2019-03-03T10:29:16.631Z,20.52
2019-03-03T10:30:16.584Z,20.58
2019-03-03T10:31:16.537Z,20.50
2019-03-03T10:32:16.493Z,20.48
2019-03-03T10:33:16.442Z,20.57
2019-03-03T10:34:16.400Z,20.54
2019-03-03T10:35:16.348Z,20.48
2019-03-03T10:36:16.306Z,20.59
2019-03-03T10:37:16.256Z,20.51
2019-03-03T10:38:16.210Z,20.51
2019-03-03T10:39:16.161Z,20.47
2019-03-03T10:40:16.112Z,20.50
2019-03-03T10:41:16.066Z,20.52
2019-03-03T10:42:16.020Z,20.55
2019-03-03T10:43:15.973Z,20.52
2019-03-03T10:44:15.974Z,20.48
2019-03-03T10:45:15.878Z,20.51
2019-03-03T10:46:15.830Z,20.59
2019-03-03T10:47:15.785Z,20.51
2019-03-03T10:48:15.735Z,20.52
2019-03-03T10:49:15.689Z,20.55
2019-03-03T10:50:15.642Z,20.48
2019-03-03T10:51:15.595Z,20.55
2019-03-03T10:52:15.548Z,20.55
2019-03-03T10:53:15.502Z,20.55
2019-03-03T10:54:15.457Z,20.58
2019-03-03T10:55:15.406Z,20.57
2019-03-03T10:56:15.359Z,20.51
2019-03-03T10:57:15.314Z,20.55
2019-03-03T10:58:15.266Z,20.62
2019-03-03T10:59:15.220Z,20.69
2019-03-03T11:00:15.170Z,20.70
2019-03-03T11:01:15.125Z,20.70
2019-03-03T11:02:15.077Z,20.69
2019-03-03T11:03:15.029Z,20.77
2019-03-03T11:04:14.986Z,20.74
2019-03-03T11:05:14.987Z,20.74
2019-03-03T11:06:14.889Z,20.73
2019-03-03T11:07:14.842Z,20.80
2019-03-03T11:08:14.794Z,20.84
2019-03-03T11:09:14.748Z,20.84
2019-03-03T11:10:14.701Z,20.85
2019-03-03T11:11:14.654Z,20.88
2019-03-03T11:12:14.606Z,20.88
2019-03-03T11:13:14.558Z,20.88
2019-03-03T11:14:14.512Z,20.82
2019-03-03T11:15:18.463Z,20.79
2019-03-03T11:16:14.422Z,20.80
2019-03-03T11:17:14.373Z,20.82
2019-03-03T11:18:14.325Z,20.84
2019-03-03T11:19:14.282Z,20.84
2019-03-03T11:20:14.230Z,20.84
2019-03-03T11:21:14.182Z,20.88
2019-03-03T11:22:14.137Z,20.74
2019-03-03T11:23:14.089Z,20.72
2019-03-03T11:24:14.041Z,20.74
2019-03-03T11:25:13.996Z,20.67
2019-03-03T11:26:13.947Z,20.80
2019-03-03T11:27:13.901Z,20.69
2019-03-03T11:28:23.356Z,20.72
2019-03-03T11:29:13.812Z,20.64
2019-03-03T11:30:13.762Z,20.64
2019-03-03T11:31:13.716Z,20.74
2019-03-03T11:32:13.666Z,20.66
2019-03-03T11:33:13.622Z,20.64
2019-03-03T11:34:13.573Z,20.74
2019-03-03T11:35:13.525Z,20.64
2019-03-03T11:36:13.477Z,20.64
2019-03-03T11:37:14.201Z,20.64
2019-03-03T11:38:13.385Z,20.70
2019-03-03T11:39:13.346Z,20.74
2019-03-03T11:40:13.289Z,20.62
2019-03-03T11:41:13.243Z,20.69
2019-03-03T11:42:13.196Z,20.67
2019-03-03T11:43:13.149Z,20.66
2019-03-03T11:44:13.102Z,20.69
2019-03-03T11:45:13.055Z,20.62
2019-03-03T11:46:13.063Z,20.72
2019-03-03T11:47:12.961Z,20.69
2019-03-03T11:48:12.915Z,20.67
2019-03-03T11:49:12.867Z,20.61
2019-03-03T11:50:12.820Z,20.69
2019-03-03T11:51:12.773Z,20.70
2019-03-03T11:52:12.725Z,20.70
2019-03-03T11:53:12.678Z,20.66
2019-03-03T11:54:12.631Z,20.69
2019-03-03T11:55:12.586Z,20.62
2019-03-03T11:56:12.538Z,20.57
2019-03-03T11:57:12.492Z,20.51
2019-03-03T11:58:12.443Z,20.62
2019-03-03T11:59:12.397Z,20.58
2019-03-03T12:00:12.357Z,20.55
2019-03-03T12:01:12.303Z,20.54
2019-03-03T12:02:12.254Z,20.52
2019-03-03T12:03:12.601Z,20.57
2019-03-03T12:04:12.160Z,20.54
2019-03-03T12:05:12.114Z,20.57
2019-03-03T12:06:12.067Z,20.57
2019-03-03T12:07:12.022Z,20.61
2019-03-03T12:08:11.973Z,20.58
2019-03-03T12:09:11.928Z,20.55
2019-03-03T12:10:11.885Z,20.55
2019-03-03T12:11:11.886Z,20.57
2019-03-03T12:12:11.794Z,20.57
2019-03-03T12:13:11.738Z,20.52
2019-03-03T12:14:11.691Z,20.48
2019-03-03T12:15:11.645Z,20.52
2019-03-03T12:16:11.597Z,20.55
2019-03-03T12:17:11.550Z,20.54
2019-03-03T12:18:11.506Z,20.50
2019-03-03T12:19:11.464Z,20.52
2019-03-03T12:20:11.408Z,20.51
2019-03-03T12:21:11.362Z,20.50
2019-03-03T12:22:11.318Z,20.54
2019-03-03T12:23:11.269Z,20.57
2019-03-03T12:24:11.219Z,20.55
2019-03-03T12:25:11.173Z,20.62
2019-03-03T12:26:11.130Z,20.59
2019-03-03T12:27:11.080Z,20.52
2019-03-03T12:28:11.033Z,20.57
2019-03-03T12:29:11.721Z,20.58
2019-03-03T12:30:10.942Z,20.57
2019-03-03T12:31:10.892Z,20.58
2019-03-03T12:32:10.846Z,20.73
2019-03-03T12:33:10.798Z,20.70
2019-03-03T12:34:10.750Z,20.66
2019-03-03T12:35:10.704Z,20.67
2019-03-03T12:36:10.705Z,20.69
2019-03-03T12:37:10.610Z,20.72
2019-03-03T12:38:10.564Z,20.67
2019-03-03T12:39:10.516Z,20.67
2019-03-03T12:40:10.468Z,20.76
2019-03-03T12:41:10.421Z,20.79
2019-03-03T12:42:10.377Z,20.74
2019-03-03T12:43:10.328Z,20.77
2019-03-03T12:44:10.280Z,20.73
2019-03-03T12:45:10.233Z,20.79
2019-03-03T12:46:10.186Z,20.79
2019-03-03T12:47:10.140Z,20.80
2019-03-03T12:48:10.093Z,20.79
2019-03-03T12:49:10.048Z,20.76
2019-03-03T12:50:09.999Z,20.77
2019-03-03T12:51:09.951Z,20.82
2019-03-03T12:52:09.905Z,20.79